createdAt,value
2019-03-09T00:00:50.333Z,0.00
2019-03-09T00:01:50.525Z,0.00
2019-03-09T00:02:50.708Z,0.00
2019-03-09T00:03:50.896Z,0.00
2019-03-09T00:04:51.075Z,0.00
2019-03-09T00:05:51.262Z,0.00
2019-03-09T00:06:51.442Z,0.00
2019-03-09T00:07:51.622Z,0.00
2019-03-09T00:08:51.810Z,0.00
2019-03-09T00:09:51.993Z,0.00
2019-03-09T00:10:52.169Z,0.00
2019-03-09T00:11:52.356Z,0.00
2019-03-09T00:12:52.538Z,0.00
2019-03-09T00:13:52.721Z,0.00
2019-03-09T00:14:52.914Z,0.00
2019-03-09T00:15:53.091Z,0.00
2019-03-09T00:16:53.277Z,0.00
2019-03-09T00:17:53.451Z,0.00
2019-03-09T00:18:53.626Z,0.00
2019-03-09T00:19:53.813Z,0.00
2019-03-09T00:20:53.995Z,0.00
2019-03-09T00:21:54.168Z,0.00
2019-03-09T00:22:54.350Z,0.00
2019-03-09T00:23:54.542Z,0.00
2019-03-09T00:24:54.722Z,0.00
2019-03-09T00:25:54.902Z,0.00
2019-03-09T00:26:55.082Z,0.00
2019-03-09T00:27:55.264Z,0.00
2019-03-09T00:28:55.455Z,0.00
2019-03-09T00:29:55.645Z,0.00
2019-03-09T00:30:55.806Z,0.00
2019-03-09T00:31:55.991Z,0.00
2019-03-09T00:32:56.177Z,0.00
2019-03-09T00:33:56.361Z,0.00
2019-03-09T00:34:56.538Z,0.00
2019-03-09T00:35:56.718Z,0.00
2019-03-09T00:36:56.920Z,0.00
2019-03-09T00:37:57.092Z,0.00
2019-03-09T00:38:57.277Z,0.00
2019-03-09T00:39:57.456Z,0.00
2019-03-09T00:40:57.642Z,0.00
2019-03-09T00:41:57.830Z,0.00
2019-03-09T00:42:58.012Z,0.00
2019-03-09T00:43:58.193Z,0.00
2019-03-09T00:44:58.402Z,0.00
2019-03-09T00:45:58.597Z,0.00
2019-03-09T00:46:58.780Z,0.00
2019-03-09T00:47:58.961Z,0.00
2019-03-09T00:48:59.144Z,0.00
2019-03-09T00:49:59.319Z,0.00
2019-03-09T00:50:59.508Z,0.00
2019-03-09T00:51:59.706Z,0.00
2019-03-09T00:52:59.867Z,0.00
2019-03-09T00:54:00.051Z,0.00
2019-03-09T00:55:00.323Z,0.00
2019-03-09T00:56:00.421Z,0.00
2019-03-09T00:57:00.609Z,0.00
2019-03-09T00:58:00.790Z,0.00
2019-03-09T00:59:00.984Z,0.00
2019-03-09T01:00:01.160Z,0.00
2019-03-09T01:01:01.338Z,0.00
2019-03-09T01:02:01.517Z,0.00
2019-03-09T01:03:01.700Z,0.00
2019-03-09T01:04:01.887Z,0.00
2019-03-09T01:05:02.074Z,0.00
2019-03-09T01:06:02.260Z,0.00
2019-03-09T01:07:02.443Z,0.00
2019-03-09T01:08:02.624Z,0.00
2019-03-09T01:09:02.803Z,0.00
2019-03-09T01:10:02.985Z,0.00
2019-03-09T01:11:03.172Z,0.00
2019-03-09T01:12:03.365Z,0.00
2019-03-09T01:13:03.534Z,0.00
2019-03-09T01:14:03.710Z,0.00
2019-03-09T01:15:03.901Z,0.00
2019-03-09T01:16:04.084Z,0.00
2019-03-09T01:17:04.257Z,0.00
2019-03-09T01:18:04.445Z,0.00
2019-03-09T01:19:04.627Z,0.00
2019-03-09T01:20:04.808Z,0.00
2019-03-09T01:21:05.012Z,0.00
2019-03-09T01:22:05.195Z,0.00
2019-03-09T01:23:05.379Z,0.00
2019-03-09T01:24:05.563Z,0.00
2019-03-09T01:25:05.745Z,0.00
2019-03-09T01:26:05.925Z,0.00
2019-03-09T01:27:06.109Z,0.00
2019-03-09T01:28:06.295Z,0.00
2019-03-09T01:29:06.470Z,0.00
2019-03-09T01:30:06.651Z,0.00
2019-03-09T01:31:06.835Z,0.00
2019-03-09T01:32:07.015Z,0.00
2019-03-09T01:33:07.243Z,0.00
2019-03-09T01:34:07.383Z,0.00
2019-03-09T01:35:07.575Z,0.00
2019-03-09T01:36:07.757Z,0.00
2019-03-09T01:37:07.940Z,0.00
2019-03-09T01:38:08.127Z,0.00
2019-03-09T01:39:08.312Z,0.00
2019-03-09T01:40:08.497Z,0.00
2019-03-09T01:41:08.680Z,0.00
2019-03-09T01:42:08.866Z,0.00
2019-03-09T01:43:09.055Z,0.00
2019-03-09T01:44:09.233Z,0.00
2019-03-09T01:45:09.416Z,0.00
2019-03-09T01:46:09.595Z,0.00
2019-03-09T01:47:09.781Z,0.00
2019-03-09T01:48:09.966Z,0.00
2019-03-09T01:49:10.153Z,0.00
2019-03-09T01:50:10.336Z,0.00
2019-03-09T01:51:10.525Z,0.00
2019-03-09T01:52:10.711Z,0.00
2019-03-09T01:53:10.890Z,0.00
2019-03-09T01:54:11.071Z,0.00
2019-03-09T01:55:11.259Z,0.00
2019-03-09T01:56:11.436Z,0.00
2019-03-09T01:57:11.615Z,0.00
2019-03-09T01:58:11.813Z,0.00
2019-03-09T01:59:11.979Z,0.00
2019-03-09T02:00:12.163Z,0.00
2019-03-09T02:01:12.354Z,0.00
2019-03-09T02:02:12.536Z,0.00
2019-03-09T02:03:12.720Z,0.00
2019-03-09T02:04:12.907Z,0.00
2019-03-09T02:05:13.127Z,0.00
2019-03-09T02:06:13.274Z,0.00
2019-03-09T02:07:13.445Z,0.00
2019-03-09T02:08:13.635Z,0.00
2019-03-09T02:09:13.823Z,0.00
2019-03-09T02:10:14.008Z,0.00
2019-03-09T02:11:14.189Z,0.00
2019-03-09T02:12:14.379Z,0.00
2019-03-09T02:13:14.555Z,0.00
2019-03-09T02:14:14.745Z,0.00
2019-03-09T02:15:14.921Z,0.00
2019-03-09T02:16:15.107Z,0.00
2019-03-09T02:17:15.285Z,0.00
2019-03-09T02:18:15.466Z,0.00
2019-03-09T02:19:15.650Z,0.00
2019-03-09T02:20:15.830Z,0.00
2019-03-09T02:21:16.022Z,0.00
2019-03-09T02:22:16.199Z,0.00
2019-03-09T02:23:16.380Z,0.00
2019-03-09T02:24:16.565Z,0.00
2019-03-09T02:25:16.755Z,0.00
2019-03-09T02:26:16.928Z,0.00
2019-03-09T02:27:17.122Z,0.00
2019-03-09T02:28:17.310Z,0.00
2019-03-09T02:29:17.496Z,0.00
2019-03-09T02:30:17.692Z,0.00
2019-03-09T02:31:17.858Z,0.00
2019-03-09T02:32:18.045Z,0.00
2019-03-09T02:33:18.225Z,0.00
2019-03-09T02:34:18.408Z,0.00
2019-03-09T02:35:18.590Z,0.00
2019-03-09T02:36:18.774Z,0.00
2019-03-09T02:37:18.949Z,0.00
2019-03-09T02:38:19.133Z,0.00
2019-03-09T02:39:19.322Z,0.00
2019-03-09T02:40:19.500Z,0.00
2019-03-09T02:41:19.678Z,0.00
2019-03-09T02:42:19.866Z,0.00
2019-03-09T02:43:20.098Z,0.00
2019-03-09T02:44:20.227Z,0.00
2019-03-09T02:45:20.400Z,0.00
2019-03-09T02:46:20.589Z,0.00
2019-03-09T02:47:20.782Z,0.00
2019-03-09T02:48:20.967Z,0.00
2019-03-09T02:49:21.158Z,0.00
2019-03-09T02:50:21.332Z,0.00
2019-03-09T02:51:21.526Z,0.00
2019-03-09T02:52:21.706Z,0.00
2019-03-09T02:53:21.892Z,0.00
2019-03-09T02:54:22.068Z,0.00
2019-03-09T02:55:22.249Z,0.00
2019-03-09T02:56:22.430Z,0.00
2019-03-09T02:57:22.610Z,0.00
2019-03-09T02:58:22.805Z,0.00
2019-03-09T02:59:22.997Z,0.00
2019-03-09T03:00:23.169Z,0.00
2019-03-09T03:01:23.350Z,0.00
2019-03-09T03:02:23.537Z,0.00
2019-03-09T03:03:23.724Z,0.00
2019-03-09T03:04:23.902Z,0.00
2019-03-09T03:05:24.092Z,0.00
2019-03-09T03:06:24.266Z,0.00
2019-03-09T03:07:24.454Z,0.00
2019-03-09T03:08:24.642Z,0.00
2019-03-09T03:09:24.826Z,0.00
2019-03-09T03:10:25.014Z,0.00
2019-03-09T03:11:25.191Z,0.00
2019-03-09T03:12:25.373Z,0.00
2019-03-09T03:13:25.561Z,0.00
2019-03-09T03:14:25.739Z,0.00
2019-03-09T03:15:25.938Z,0.00
2019-03-09T03:16:26.124Z,0.00
2019-03-09T03:17:26.304Z,0.00
2019-03-09T03:18:26.485Z,0.00
2019-03-09T03:19:26.670Z,0.00
2019-03-09T03:20:26.849Z,0.00
2019-03-09T03:21:27.079Z,0.00
2019-03-09T03:22:27.210Z,0.00
2019-03-09T03:23:27.395Z,0.00
2019-03-09T03:24:27.578Z,0.00
2019-03-09T03:25:27.770Z,0.00
2019-03-09T03:26:27.944Z,0.00
2019-03-09T03:27:28.126Z,0.00
2019-03-09T03:28:28.311Z,0.00
2019-03-09T03:29:28.500Z,0.00
2019-03-09T03:30:28.675Z,0.00
2019-03-09T03:31:28.859Z,0.00
2019-03-09T03:32:29.045Z,0.00
2019-03-09T03:33:29.226Z,0.00
2019-03-09T03:34:29.412Z,0.00
2019-03-09T03:35:29.593Z,0.00
2019-03-09T03:36:29.771Z,0.00
2019-03-09T03:37:29.958Z,0.00
2019-03-09T03:38:30.146Z,0.00
2019-03-09T03:39:30.322Z,0.00
2019-03-09T03:40:30.509Z,0.00
2019-03-09T03:41:30.686Z,0.00
2019-03-09T03:42:30.880Z,0.00
2019-03-09T03:43:31.051Z,0.00
2019-03-09T03:44:31.232Z,0.00
2019-03-09T03:45:31.419Z,0.00
2019-03-09T03:46:31.595Z,0.00
2019-03-09T03:47:31.780Z,0.00
2019-03-09T03:48:31.971Z,0.00
2019-03-09T03:49:32.165Z,0.00
2019-03-09T03:50:32.342Z,0.00
2019-03-09T03:51:32.524Z,0.00
2019-03-09T03:52:32.715Z,0.00
2019-03-09T03:53:32.880Z,0.00
2019-03-09T03:54:33.062Z,0.00
2019-03-09T03:55:33.248Z,0.00
2019-03-09T03:56:33.434Z,0.00
2019-03-09T03:57:33.612Z,0.00
2019-03-09T03:58:33.794Z,0.00
2019-03-09T03:59:33.983Z,0.00
2019-03-09T04:00:34.165Z,0.00
2019-03-09T04:01:34.343Z,0.00
2019-03-09T04:02:34.534Z,0.00
2019-03-09T04:03:34.725Z,0.00
2019-03-09T04:04:34.895Z,0.00
2019-03-09T04:05:35.084Z,0.00
2019-03-09T04:06:35.260Z,0.00
2019-03-09T04:07:35.436Z,0.00
2019-03-09T04:08:35.623Z,0.00
2019-03-09T04:09:35.797Z,0.00
2019-03-09T04:10:35.990Z,0.00
2019-03-09T04:11:36.167Z,0.00
2019-03-09T04:12:36.346Z,0.00
2019-03-09T04:13:36.534Z,0.00
2019-03-09T04:14:36.719Z,0.00
2019-03-09T04:15:36.912Z,0.00
2019-03-09T04:16:37.090Z,0.00
2019-03-09T04:17:37.276Z,0.00
2019-03-09T04:18:37.463Z,0.00
2019-03-09T04:19:37.641Z,0.00
2019-03-09T04:20:37.827Z,0.00
2019-03-09T04:21:38.011Z,0.00
2019-03-09T04:22:38.194Z,0.00
2019-03-09T04:23:38.373Z,0.00
2019-03-09T04:24:38.587Z,0.00
2019-03-09T04:25:38.751Z,0.00
2019-03-09T04:26:38.944Z,0.00
2019-03-09T04:27:39.130Z,0.00
2019-03-09T04:28:39.313Z,0.00
2019-03-09T04:29:39.490Z,0.00
2019-03-09T04:30:39.675Z,0.00
2019-03-09T04:31:39.860Z,0.00
2019-03-09T04:32:40.039Z,0.00
2019-03-09T04:33:40.218Z,0.00
2019-03-09T04:34:40.395Z,0.00
2019-03-09T04:35:40.587Z,0.00
2019-03-09T04:36:40.762Z,0.00
2019-03-09T04:37:40.953Z,0.00
2019-03-09T04:38:41.144Z,0.00
2019-03-09T04:39:41.340Z,0.00
2019-03-09T04:40:41.536Z,0.00
2019-03-09T04:41:41.698Z,0.00
2019-03-09T04:42:41.890Z,0.00
2019-03-09T04:43:42.096Z,0.00
2019-03-09T04:44:42.256Z,0.00
2019-03-09T04:45:42.446Z,0.00
2019-03-09T04:46:42.619Z,0.00
2019-03-09T04:47:42.815Z,0.00
2019-03-09T04:48:42.994Z,0.00
2019-03-09T04:49:43.177Z,0.00
2019-03-09T04:50:43.357Z,0.00
2019-03-09T04:51:43.541Z,0.00
2019-03-09T04:52:43.716Z,0.00
2019-03-09T04:53:43.899Z,0.00
2019-03-09T04:54:44.088Z,0.00
2019-03-09T04:55:44.272Z,0.00
2019-03-09T04:56:44.455Z,0.00
2019-03-09T04:57:44.635Z,0.00
2019-03-09T04:58:44.814Z,0.00
2019-03-09T04:59:44.998Z,0.00
2019-03-09T05:00:45.182Z,0.00
2019-03-09T05:01:45.361Z,0.00
2019-03-09T05:02:45.545Z,0.00
2019-03-09T05:03:45.721Z,0.00
2019-03-09T05:04:45.908Z,0.00
2019-03-09T05:05:46.086Z,0.00
2019-03-09T05:06:46.271Z,0.00
2019-03-09T05:07:46.465Z,0.00
2019-03-09T05:08:46.629Z,0.00
2019-03-09T05:09:46.810Z,0.00
2019-03-09T05:10:46.990Z,0.00
2019-03-09T05:11:47.176Z,0.00
2019-03-09T05:12:47.353Z,0.00
2019-03-09T05:13:47.544Z,0.00
2019-03-09T05:14:47.719Z,0.00
2019-03-09T05:15:47.893Z,0.00
2019-03-09T05:16:48.073Z,0.00
2019-03-09T05:17:48.264Z,0.00
2019-03-09T05:18:48.438Z,0.00
2019-03-09T05:19:48.628Z,0.00
2019-03-09T05:20:48.807Z,0.00
2019-03-09T05:21:48.988Z,0.00
2019-03-09T05:22:49.167Z,0.00
2019-03-09T05:23:49.350Z,0.00
2019-03-09T05:24:49.528Z,0.00
2019-03-09T05:25:49.707Z,0.00
2019-03-09T05:26:49.894Z,0.00
2019-03-09T05:27:50.071Z,0.00
2019-03-09T05:28:50.253Z,4.00
2019-03-09T05:29:50.442Z,4.00
2019-03-09T05:30:50.618Z,4.00
2019-03-09T05:31:50.801Z,4.00
2019-03-09T05:32:50.985Z,4.00
2019-03-09T05:33:51.169Z,4.00
2019-03-09T05:34:51.356Z,8.00
2019-03-09T05:35:51.536Z,4.00
2019-03-09T05:36:51.720Z,8.00
2019-03-09T05:37:51.900Z,8.00
2019-03-09T05:38:52.084Z,12.00
2019-03-09T05:39:52.268Z,12.00
2019-03-09T05:40:52.449Z,16.00
2019-03-09T05:41:52.629Z,16.00
2019-03-09T05:42:52.811Z,16.00
2019-03-09T05:43:52.995Z,20.00
2019-03-09T05:44:53.179Z,24.00
2019-03-09T05:45:53.356Z,28.00
2019-03-09T05:46:53.540Z,28.00
2019-03-09T05:47:53.716Z,28.00
2019-03-09T05:48:53.894Z,28.00
2019-03-09T05:49:54.078Z,36.00
2019-03-09T05:50:54.268Z,52.00
2019-03-09T05:51:54.451Z,72.00
2019-03-09T05:52:55.425Z,72.00
2019-03-09T05:53:54.887Z,64.00
2019-03-09T05:54:55.068Z,60.00
2019-03-09T05:55:55.254Z,72.00
2019-03-09T05:56:55.434Z,76.00
2019-03-09T05:57:55.619Z,80.00
2019-03-09T05:58:55.794Z,96.00
2019-03-09T05:59:55.976Z,80.00
2019-03-09T06:00:56.158Z,80.00
2019-03-09T06:01:56.335Z,92.00
2019-03-09T06:02:56.518Z,124.00
2019-03-09T06:03:56.704Z,156.00
2019-03-09T06:04:56.883Z,148.00
2019-03-09T06:05:57.114Z,132.00
2019-03-09T06:06:57.252Z,136.00
2019-03-09T06:07:57.436Z,156.00
2019-03-09T06:08:57.613Z,168.00
2019-03-09T06:09:57.793Z,168.00
2019-03-09T06:10:57.978Z,192.00
2019-03-09T06:11:58.154Z,216.00
2019-03-09T06:12:58.342Z,204.00
2019-03-09T06:13:58.524Z,192.00
2019-03-09T06:14:58.714Z,192.00
2019-03-09T06:15:58.886Z,176.00
2019-03-09T06:16:59.076Z,188.00
2019-03-09T06:17:59.254Z,212.00
2019-03-09T06:18:59.433Z,200.00
2019-03-09T06:19:59.629Z,212.00
2019-03-09T06:20:59.800Z,220.00
2019-03-09T06:21:59.983Z,260.00
2019-03-09T06:23:00.164Z,308.00
2019-03-09T06:24:00.346Z,384.00
2019-03-09T06:25:00.529Z,492.00
2019-03-09T06:26:00.716Z,460.00
2019-03-09T06:27:00.913Z,384.00
2019-03-09T06:28:01.103Z,444.00
2019-03-09T06:29:01.295Z,316.00
2019-03-09T06:30:01.475Z,292.00
2019-03-09T06:31:01.660Z,364.00
2019-03-09T06:32:01.841Z,468.00
2019-03-09T06:33:02.019Z,536.00
2019-03-09T06:34:02.210Z,456.00
2019-03-09T06:35:02.390Z,332.00
2019-03-09T06:36:02.571Z,416.00
2019-03-09T06:37:02.754Z,520.00
2019-03-09T06:38:02.935Z,756.00
2019-03-09T06:39:03.124Z,912.00
2019-03-09T06:40:03.299Z,880.00
2019-03-09T06:41:03.482Z,840.00
2019-03-09T06:42:03.664Z,888.00
2019-03-09T06:43:03.855Z,1016.00
2019-03-09T06:44:04.036Z,932.00
2019-03-09T06:45:04.214Z,708.00
2019-03-09T06:46:04.394Z,564.00
2019-03-09T06:47:04.570Z,572.00
2019-03-09T06:48:04.751Z,656.00
2019-03-09T06:49:04.939Z,804.00
2019-03-09T06:50:05.118Z,984.00
2019-03-09T06:51:05.300Z,1388.00
2019-03-09T06:52:05.484Z,1220.00
2019-03-09T06:53:05.661Z,1468.00
2019-03-09T06:54:05.840Z,2292.00
2019-03-09T06:55:06.037Z,2596.00
2019-03-09T06:56:06.199Z,1580.00
2019-03-09T06:57:13.565Z,1260.00
2019-03-09T06:58:06.568Z,1032.00
2019-03-09T06:59:06.749Z,932.00
2019-03-09T07:00:06.928Z,984.00
2019-03-09T07:01:07.108Z,964.00
2019-03-09T07:02:07.294Z,1152.00
2019-03-09T07:03:07.483Z,1296.00
2019-03-09T07:04:07.665Z,1584.00
2019-03-09T07:05:07.848Z,1728.00
2019-03-09T07:06:08.026Z,1624.00
2019-03-09T07:07:08.207Z,1792.00
2019-03-09T07:08:08.398Z,2020.00
2019-03-09T07:09:08.579Z,2104.00
2019-03-09T07:10:08.775Z,1356.00
2019-03-09T07:11:08.957Z,1240.00
2019-03-09T07:12:09.139Z,1584.00
2019-03-09T07:13:09.319Z,1316.00
2019-03-09T07:14:09.501Z,1072.00
2019-03-09T07:15:09.707Z,1168.00
2019-03-09T07:16:09.904Z,1296.00
2019-03-09T07:17:10.075Z,1376.00
2019-03-09T07:18:10.246Z,1804.00
2019-03-09T07:19:10.424Z,1956.00
2019-03-09T07:20:12.913Z,2048.00
2019-03-09T07:21:10.801Z,1816.00
2019-03-09T07:22:10.997Z,1764.00
2019-03-09T07:23:11.183Z,2024.00
2019-03-09T07:24:11.363Z,2016.00
2019-03-09T07:25:11.545Z,2300.00
2019-03-09T07:26:11.725Z,3084.00
2019-03-09T07:27:11.912Z,3216.00
2019-03-09T07:28:12.099Z,3416.00
2019-03-09T07:29:12.289Z,3436.00
2019-03-09T07:30:12.475Z,2912.00
2019-03-09T07:31:12.660Z,3804.00
2019-03-09T07:32:12.849Z,3736.00
2019-03-09T07:33:13.028Z,4976.00
2019-03-09T07:34:13.213Z,7476.00
2019-03-09T07:35:13.393Z,5940.00
2019-03-09T07:36:13.577Z,5704.00
2019-03-09T07:37:13.766Z,4288.00
2019-03-09T07:38:13.948Z,5176.00
2019-03-09T07:39:14.136Z,5016.00
2019-03-09T07:40:14.322Z,4560.00
2019-03-09T07:41:14.504Z,3652.00
2019-03-09T07:42:14.687Z,3828.00
2019-03-09T07:43:14.881Z,3200.00
2019-03-09T07:44:15.069Z,4116.00
2019-03-09T07:45:15.250Z,4528.00
2019-03-09T07:46:15.433Z,4280.00
2019-03-09T07:47:15.618Z,4964.00
2019-03-09T07:48:15.803Z,7120.00
2019-03-09T07:49:15.991Z,5952.00
2019-03-09T07:50:16.186Z,4144.00
2019-03-09T07:51:16.366Z,6132.00
2019-03-09T07:52:16.556Z,7284.00
2019-03-09T07:53:16.738Z,6852.00
2019-03-09T07:54:16.926Z,11980.00
2019-03-09T07:55:17.112Z,10928.00
2019-03-09T07:56:17.296Z,9316.00
2019-03-09T07:57:17.482Z,10700.00
2019-03-09T07:58:17.675Z,11568.00
2019-03-09T07:59:17.858Z,15444.00
2019-03-09T08:00:18.042Z,22272.00
2019-03-09T08:01:18.234Z,6900.00
2019-03-09T08:02:18.427Z,4668.00
2019-03-09T08:03:18.600Z,4300.00
2019-03-09T08:04:18.794Z,2780.00
2019-03-09T08:05:18.980Z,3136.00
2019-03-09T08:06:19.165Z,3228.00
2019-03-09T08:07:19.361Z,3092.00
2019-03-09T08:08:19.549Z,3756.00
2019-03-09T08:09:19.739Z,6212.00
2019-03-09T08:10:19.912Z,7432.00
2019-03-09T08:11:20.106Z,6320.00
2019-03-09T08:12:20.295Z,5392.00
2019-03-09T08:13:20.475Z,6176.00
2019-03-09T08:14:20.662Z,5640.00
2019-03-09T08:15:20.849Z,5424.00
2019-03-09T08:16:21.037Z,3968.00
2019-03-09T08:17:21.214Z,4340.00
2019-03-09T08:18:21.393Z,3848.00
2019-03-09T08:19:21.580Z,4168.00
2019-03-09T08:20:21.775Z,5608.00
2019-03-09T08:21:21.950Z,5256.00
2019-03-09T08:22:22.144Z,6584.00
2019-03-09T08:23:22.339Z,5096.00
2019-03-09T08:24:22.572Z,5120.00
2019-03-09T08:25:22.709Z,5600.00
2019-03-09T08:26:22.906Z,4980.00
2019-03-09T08:27:23.082Z,4552.00
2019-03-09T08:28:23.273Z,4880.00
2019-03-09T08:29:23.466Z,5724.00
2019-03-09T08:30:23.664Z,5596.00
2019-03-09T08:31:23.826Z,4860.00
2019-03-09T08:32:24.022Z,5380.00
2019-03-09T08:33:24.222Z,5716.00
2019-03-09T08:34:24.397Z,6152.00
2019-03-09T08:35:24.583Z,4996.00
2019-03-09T08:36:24.772Z,6896.00
2019-03-09T08:37:24.957Z,7860.00
2019-03-09T08:38:25.153Z,8856.00
2019-03-09T08:39:25.382Z,10052.00
2019-03-09T08:40:25.532Z,8992.00
2019-03-09T08:41:25.701Z,7852.00
2019-03-09T08:42:25.899Z,7292.00
2019-03-09T08:43:26.074Z,7552.00
2019-03-09T08:44:26.259Z,7088.00
2019-03-09T08:45:26.448Z,9364.00
2019-03-09T08:46:26.647Z,11524.00
2019-03-09T08:47:26.833Z,9648.00
2019-03-09T08:48:27.030Z,13140.00
2019-03-09T08:49:27.205Z,13688.00
2019-03-09T08:50:27.389Z,14004.00
2019-03-09T08:51:27.592Z,13628.00
2019-03-09T08:52:27.776Z,12976.00
2019-03-09T08:53:28.052Z,13956.00
2019-03-09T08:54:28.147Z,13208.00
2019-03-09T08:55:28.367Z,19104.00
2019-03-09T08:56:28.539Z,13372.00
2019-03-09T08:57:28.721Z,13220.00
2019-03-09T08:58:28.907Z,12256.00
2019-03-09T08:59:29.109Z,11668.00
2019-03-09T09:00:30.463Z,10772.00
2019-03-09T09:01:29.480Z,10576.00
2019-03-09T09:02:29.661Z,10788.00
2019-03-09T09:03:29.853Z,10632.00
2019-03-09T09:04:30.074Z,10712.00
2019-03-09T09:05:30.250Z,11264.00
2019-03-09T09:06:30.452Z,12396.00
2019-03-09T09:07:30.646Z,14184.00
2019-03-09T09:08:30.842Z,14860.00
2019-03-09T09:09:31.018Z,14980.00
2019-03-09T09:10:31.291Z,13916.00
2019-03-09T09:11:31.405Z,11648.00
2019-03-09T09:12:31.577Z,10180.00
2019-03-09T09:13:31.759Z,9192.00
2019-03-09T09:14:31.948Z,8420.00
2019-03-09T09:15:32.136Z,7756.00
2019-03-09T09:16:32.321Z,7376.00
2019-03-09T09:17:32.510Z,7020.00
2019-03-09T09:18:32.695Z,7080.00
2019-03-09T09:19:32.888Z,7176.00
2019-03-09T09:20:33.070Z,7168.00
2019-03-09T09:21:33.258Z,7176.00
2019-03-09T09:22:33.450Z,6796.00
2019-03-09T09:23:33.631Z,6844.00
2019-03-09T09:24:33.818Z,7252.00
2019-03-09T09:25:34.006Z,7128.00
2019-03-09T09:26:34.203Z,7068.00
2019-03-09T09:27:34.383Z,7944.00
2019-03-09T09:28:34.566Z,8800.00
2019-03-09T09:29:34.772Z,9488.00
2019-03-09T09:30:34.958Z,9892.00
2019-03-09T09:31:35.144Z,11120.00
2019-03-09T09:32:35.328Z,12408.00
2019-03-09T09:33:35.509Z,13364.00
2019-03-09T09:34:35.708Z,13400.00
2019-03-09T09:35:35.883Z,13320.00
2019-03-09T09:36:36.075Z,12352.00
2019-03-09T09:37:36.263Z,11652.00
2019-03-09T09:38:36.449Z,10628.00
2019-03-09T09:39:36.632Z,9200.00
2019-03-09T09:40:36.825Z,8096.00
2019-03-09T09:41:37.029Z,7352.00
2019-03-09T09:42:37.210Z,6984.00
2019-03-09T09:43:37.412Z,7728.00
2019-03-09T09:44:37.586Z,7628.00
2019-03-09T09:45:37.771Z,8012.00
2019-03-09T09:46:37.969Z,6956.00
2019-03-09T09:47:38.153Z,6256.00
2019-03-09T09:48:38.338Z,6444.00
2019-03-09T09:49:38.519Z,6092.00
2019-03-09T09:50:38.708Z,5908.00
2019-03-09T09:51:38.909Z,5880.00
2019-03-09T09:52:39.093Z,5800.00
2019-03-09T09:53:39.279Z,5532.00
2019-03-09T09:54:39.458Z,4672.00
2019-03-09T09:55:39.667Z,4440.00
2019-03-09T09:56:39.854Z,4392.00
2019-03-09T09:57:40.047Z,4280.00
2019-03-09T09:58:40.232Z,4636.00
2019-03-09T09:59:40.418Z,5360.00
2019-03-09T10:00:40.656Z,6332.00
2019-03-09T10:01:40.794Z,7128.00
2019-03-09T10:02:40.975Z,7152.00
2019-03-09T10:03:41.167Z,7080.00
2019-03-09T10:04:41.352Z,7320.00
2019-03-09T10:05:41.542Z,7632.00
2019-03-09T10:06:41.726Z,8056.00
2019-03-09T10:07:41.918Z,8836.00
2019-03-09T10:08:42.106Z,9508.00
2019-03-09T10:09:42.291Z,9824.00
2019-03-09T10:10:42.475Z,9884.00
2019-03-09T10:11:42.661Z,9880.00
2019-03-09T10:12:42.848Z,10648.00
2019-03-09T10:13:43.038Z,11420.00
2019-03-09T10:14:43.224Z,11436.00
2019-03-09T10:15:43.408Z,9500.00
2019-03-09T10:16:43.592Z,7480.00
2019-03-09T10:17:43.780Z,5828.00
2019-03-09T10:18:43.964Z,4452.00
2019-03-09T10:19:44.151Z,4280.00
2019-03-09T10:20:45.097Z,5412.00
2019-03-09T10:21:44.526Z,5512.00
2019-03-09T10:22:44.702Z,5776.00
2019-03-09T10:23:44.900Z,6396.00
2019-03-09T10:24:45.089Z,7796.00
2019-03-09T10:25:45.289Z,7504.00
2019-03-09T10:26:45.458Z,7384.00
2019-03-09T10:27:45.644Z,6796.00
2019-03-09T10:28:45.836Z,6152.00
2019-03-09T10:29:46.012Z,5480.00
2019-03-09T10:30:46.202Z,4984.00
2019-03-09T10:31:46.394Z,4696.00
2019-03-09T10:32:46.579Z,4892.00
2019-03-09T10:33:46.767Z,5256.00
2019-03-09T10:34:46.957Z,6040.00
2019-03-09T10:35:47.142Z,7324.00
2019-03-09T10:36:47.328Z,7964.00
2019-03-09T10:37:47.515Z,9076.00
2019-03-09T10:38:47.698Z,11468.00
2019-03-09T10:39:47.892Z,13276.00
2019-03-09T10:40:48.082Z,13620.00
2019-03-09T10:41:48.268Z,13788.00
2019-03-09T10:42:48.448Z,12872.00
2019-03-09T10:43:48.638Z,9688.00
2019-03-09T10:44:49.826Z,8956.00
2019-03-09T10:45:49.013Z,8848.00
2019-03-09T10:46:49.223Z,7728.00
2019-03-09T10:47:49.410Z,7332.00
2019-03-09T10:48:49.598Z,7216.00
2019-03-09T10:49:49.782Z,7228.00
2019-03-09T10:50:49.983Z,7164.00
2019-03-09T10:51:50.167Z,6612.00
2019-03-09T10:52:50.356Z,6592.00
2019-03-09T10:53:50.547Z,6528.00
2019-03-09T10:54:50.738Z,6828.00
2019-03-09T10:55:50.928Z,6880.00
2019-03-09T10:56:51.114Z,6076.00
2019-03-09T10:57:51.295Z,6820.00
2019-03-09T10:58:51.482Z,7656.00
2019-03-09T10:59:51.668Z,7092.00
2019-03-09T11:00:51.854Z,7908.00
2019-03-09T11:01:52.047Z,8496.00
2019-03-09T11:02:52.240Z,7180.00
2019-03-09T11:03:52.432Z,7092.00
2019-03-09T11:04:52.617Z,7852.00
2019-03-09T11:05:52.801Z,7672.00
2019-03-09T11:06:52.989Z,6696.00
2019-03-09T11:07:53.245Z,6772.00
2019-03-09T11:08:53.423Z,6668.00
2019-03-09T11:09:53.614Z,6084.00
2019-03-09T11:10:53.836Z,6376.00
2019-03-09T11:11:54.024Z,5972.00
2019-03-09T11:12:54.212Z,5600.00
2019-03-09T11:13:54.403Z,5428.00
2019-03-09T11:14:54.599Z,5940.00
2019-03-09T11:15:54.781Z,6440.00
2019-03-09T11:16:54.961Z,6680.00
2019-03-09T11:17:55.161Z,7232.00
2019-03-09T11:18:55.346Z,8020.00
2019-03-09T11:19:55.536Z,8108.00
2019-03-09T11:20:55.719Z,7904.00
2019-03-09T11:21:55.899Z,7800.00
2019-03-09T11:22:56.093Z,7856.00
2019-03-09T11:23:56.284Z,7944.00
2019-03-09T11:25:03.455Z,8436.00
2019-03-09T11:25:56.659Z,8484.00
2019-03-09T11:26:56.845Z,9116.00
2019-03-09T11:27:57.032Z,9384.00
2019-03-09T11:28:57.230Z,9480.00
2019-03-09T11:29:57.418Z,9700.00
2019-03-09T11:30:57.601Z,9732.00
2019-03-09T11:31:57.868Z,9520.00
2019-03-09T11:32:57.995Z,9524.00
2019-03-09T11:33:58.178Z,10276.00
2019-03-09T11:34:58.370Z,11604.00
2019-03-09T11:35:58.568Z,13032.00
2019-03-09T11:36:58.760Z,16288.00
2019-03-09T11:37:58.947Z,14608.00
2019-03-09T11:38:59.129Z,13888.00
2019-03-09T11:39:59.314Z,13264.00
2019-03-09T11:41:00.827Z,12656.00
2019-03-09T11:41:59.704Z,12452.00
2019-03-09T11:42:59.892Z,12472.00
2019-03-09T11:44:00.073Z,12208.00
2019-03-09T11:45:00.390Z,12304.00
2019-03-09T11:46:00.453Z,12220.00
2019-03-09T11:47:00.646Z,12528.00
2019-03-09T11:48:00.839Z,13148.00
2019-03-09T11:49:01.027Z,13848.00
2019-03-09T11:50:01.212Z,12928.00
2019-03-09T11:51:01.400Z,13044.00
2019-03-09T11:52:01.599Z,17120.00
2019-03-09T11:53:01.800Z,17408.00
2019-03-09T11:54:01.994Z,15972.00
2019-03-09T11:55:02.176Z,16288.00
2019-03-09T11:56:02.358Z,14364.00
2019-03-09T11:57:02.556Z,13620.00
2019-03-09T11:58:02.740Z,20384.00
2019-03-09T11:59:02.934Z,19168.00
2019-03-09T12:00:03.115Z,15028.00
2019-03-09T12:01:03.317Z,15720.00
2019-03-09T12:02:03.501Z,16160.00
2019-03-09T12:03:03.689Z,17120.00
2019-03-09T12:04:03.871Z,26912.00
2019-03-09T12:05:04.067Z,22048.00
2019-03-09T12:06:04.264Z,18272.00
2019-03-09T12:07:04.461Z,18272.00
2019-03-09T12:08:04.647Z,17792.00
2019-03-09T12:09:04.841Z,25664.00
2019-03-09T12:10:05.072Z,23872.00
2019-03-09T12:11:05.225Z,26624.00
2019-03-09T12:12:05.416Z,20512.00
2019-03-09T12:13:05.607Z,21120.00
2019-03-09T12:14:05.792Z,26592.00
2019-03-09T12:15:05.982Z,25344.00
2019-03-09T12:16:06.174Z,22240.00
2019-03-09T12:17:12.410Z,23392.00
2019-03-09T12:18:06.551Z,26464.00
2019-03-09T12:19:06.737Z,20768.00
2019-03-09T12:20:06.931Z,24256.00
2019-03-09T12:21:07.127Z,22080.00
2019-03-09T12:22:07.327Z,30272.00
2019-03-09T12:23:07.519Z,22656.00
2019-03-09T12:24:16.162Z,21984.00
2019-03-09T12:25:07.905Z,21824.00
2019-03-09T12:26:08.091Z,19072.00
2019-03-09T12:27:08.275Z,14824.00
2019-03-09T12:28:08.470Z,12784.00
2019-03-09T12:29:08.657Z,12116.00
2019-03-09T12:30:08.858Z,11872.00
2019-03-09T12:31:09.047Z,12540.00
2019-03-09T12:32:09.233Z,12844.00
2019-03-09T12:33:09.419Z,12572.00
2019-03-09T12:34:09.610Z,12408.00
2019-03-09T12:35:09.802Z,11384.00
2019-03-09T12:36:09.986Z,10356.00
2019-03-09T12:37:10.179Z,11768.00
2019-03-09T12:38:10.375Z,11592.00